createdAt,value
2023-05-09T00:00:51.745Z,75.91
2023-05-09T00:03:18.540Z,76.14
2023-05-09T00:05:45.496Z,75.05
2023-05-09T00:08:12.184Z,74.28
2023-05-09T00:10:38.985Z,75.66
2023-05-09T00:13:05.699Z,76.34
2023-05-09T00:15:32.476Z,76.06
2023-05-09T00:18:00.663Z,76.00
2023-05-09T00:20:27.331Z,77.03
2023-05-09T00:22:54.024Z,78.92
2023-05-09T00:25:20.766Z,79.21
2023-05-09T00:27:47.498Z,79.02
2023-05-09T00:30:14.294Z,78.37
2023-05-09T00:32:41.016Z,78.84
2023-05-09T00:35:09.706Z,79.01
2023-05-09T00:37:36.347Z,78.27
2023-05-09T00:40:04.261Z,79.16
2023-05-09T00:42:30.976Z,79.57
2023-05-09T00:44:57.870Z,79.67
2023-05-09T00:47:24.701Z,78.49
2023-05-09T00:49:51.374Z,78.07
2023-05-09T00:52:19.410Z,77.25
2023-05-09T00:54:46.196Z,76.52
2023-05-09T00:57:12.916Z,76.48
2023-05-09T00:59:39.638Z,76.84
2023-05-09T01:02:06.352Z,77.41
2023-05-09T01:04:33.184Z,76.46
2023-05-09T01:07:04.423Z,77.34
2023-05-09T01:09:37.578Z,76.98
2023-05-09T01:12:09.877Z,76.78
2023-05-09T01:14:39.365Z,76.56
2023-05-09T01:17:09.497Z,76.80
2023-05-09T01:19:46.049Z,75.41
2023-05-09T01:22:12.823Z,75.66
2023-05-09T01:25:10.049Z,76.10
2023-05-09T01:27:40.380Z,76.51
2023-05-09T01:30:09.252Z,77.21
2023-05-09T01:32:36.128Z,77.48
2023-05-09T01:35:03.150Z,77.35
2023-05-09T01:37:30.500Z,78.17
2023-05-09T01:39:58.570Z,78.32
2023-05-09T01:42:25.296Z,78.63
2023-05-09T01:44:51.956Z,78.85
2023-05-09T01:47:20.057Z,79.18
2023-05-09T01:49:46.767Z,79.15
2023-05-09T01:52:14.983Z,77.60
2023-05-09T01:54:41.759Z,77.48
2023-05-09T01:57:08.442Z,77.67
2023-05-09T01:59:35.105Z,77.69
2023-05-09T02:02:02.423Z,77.54
2023-05-09T02:04:30.654Z,77.29
2023-05-09T02:06:57.318Z,77.17
2023-05-09T02:09:24.048Z,76.57
2023-05-09T02:11:50.732Z,76.66
2023-05-09T02:14:17.541Z,76.23
2023-05-09T02:16:44.409Z,76.01
2023-05-09T02:19:11.183Z,76.40
2023-05-09T02:21:39.311Z,75.89
2023-05-09T02:24:06.641Z,76.02
2023-05-09T02:26:33.346Z,76.32
2023-05-09T02:29:00.106Z,76.16
2023-05-09T02:31:26.904Z,76.10
2023-05-09T02:33:53.638Z,76.59
2023-05-09T02:36:20.380Z,76.11
2023-05-09T02:38:48.476Z,76.19
2023-05-09T02:41:15.354Z,76.28
2023-05-09T02:43:42.069Z,76.45
2023-05-09T02:46:08.940Z,76.87
2023-05-09T02:48:35.669Z,76.38
2023-05-09T02:51:02.382Z,76.91
2023-05-09T02:53:29.093Z,76.80
2023-05-09T02:55:57.302Z,77.22
2023-05-09T02:58:23.991Z,77.86
2023-05-09T03:00:50.757Z,78.26
2023-05-09T03:03:17.534Z,78.52
2023-05-09T03:05:44.270Z,79.24
2023-05-09T03:08:10.987Z,79.07
2023-05-09T03:10:37.704Z,79.62
2023-05-09T03:13:05.792Z,80.70
2023-05-09T03:15:32.529Z,81.94
2023-05-09T03:17:59.295Z,82.08
2023-05-09T03:20:26.268Z,82.26
2023-05-09T03:22:53.079Z,82.65
2023-05-09T03:25:19.903Z,82.59
2023-05-09T03:27:46.643Z,83.14
2023-05-09T03:30:15.299Z,83.00
2023-05-09T03:32:42.027Z,82.55
2023-05-09T03:35:08.898Z,82.76
2023-05-09T03:37:35.592Z,83.21
2023-05-09T03:40:02.274Z,82.91
2023-05-09T03:42:28.971Z,82.71
2023-05-09T03:44:55.694Z,83.29
2023-05-09T03:47:23.849Z,83.23
2023-05-09T03:49:50.565Z,81.82
2023-05-09T03:52:17.304Z,80.18
2023-05-09T03:54:44.032Z,78.11
2023-05-09T03:57:10.993Z,77.53
2023-05-09T03:59:37.786Z,75.37
2023-05-09T04:02:04.543Z,74.58
2023-05-09T04:04:32.656Z,73.49
2023-05-09T04:06:59.424Z,71.93
2023-05-09T04:09:26.225Z,69.64
2023-05-09T04:11:52.919Z,67.20
2023-05-09T04:14:19.670Z,68.58
2023-05-09T04:16:46.404Z,66.86
2023-05-09T04:19:13.057Z,65.01
2023-05-09T04:21:41.300Z,66.53
2023-05-09T04:24:08.237Z,65.38
2023-05-09T04:26:35.422Z,66.15
2023-05-09T04:29:02.171Z,63.72
2023-05-09T04:31:28.914Z,64.54
2023-05-09T04:33:55.639Z,63.78
2023-05-09T04:36:22.406Z,63.85
2023-05-09T04:38:50.494Z,62.28
2023-05-09T04:41:17.174Z,63.15
2023-05-09T04:43:43.866Z,63.03
2023-05-09T04:46:10.612Z,62.82
2023-05-09T04:48:37.353Z,61.70
2023-05-09T04:51:04.081Z,60.43
2023-05-09T04:53:30.780Z,60.56
2023-05-09T04:55:58.872Z,59.77
2023-05-09T04:58:25.592Z,57.78
2023-05-09T05:00:52.261Z,58.12
2023-05-09T05:03:18.951Z,59.47
2023-05-09T05:05:45.732Z,54.40
2023-05-09T05:08:12.439Z,56.71
2023-05-09T05:10:39.114Z,55.33
2023-05-09T05:13:07.323Z,56.34
2023-05-09T05:15:34.059Z,56.02
2023-05-09T05:18:00.803Z,55.53
2023-05-09T05:20:27.607Z,56.73
2023-05-09T05:22:54.317Z,56.79
2023-05-09T05:25:21.044Z,54.40
2023-05-09T05:27:47.828Z,55.02
2023-05-09T05:30:16.238Z,55.04
2023-05-09T05:32:42.918Z,55.58
2023-05-09T05:35:09.966Z,55.18
2023-05-09T05:37:36.724Z,55.76
2023-05-09T05:40:03.781Z,52.86
2023-05-09T05:42:30.529Z,54.98
2023-05-09T05:44:57.253Z,53.39
2023-05-09T05:47:25.317Z,54.73
2023-05-09T05:49:52.627Z,53.76
2023-05-09T05:52:19.311Z,53.97
2023-05-09T05:54:46.010Z,52.54
2023-05-09T05:57:12.780Z,53.00
2023-05-09T05:59:39.492Z,52.30
2023-05-09T06:02:06.218Z,51.56
2023-05-09T06:04:34.373Z,52.55
2023-05-09T06:07:01.110Z,49.30
2023-05-09T06:09:27.833Z,50.60
2023-05-09T06:11:54.663Z,49.65
2023-05-09T06:14:21.552Z,50.95
2023-05-09T06:16:50.445Z,48.14
2023-05-09T06:19:19.122Z,51.17
2023-05-09T06:21:47.194Z,49.13
2023-05-09T06:24:23.358Z,50.94
2023-05-09T06:26:58.822Z,51.32
2023-05-09T06:29:25.538Z,51.15
2023-05-09T06:31:52.378Z,48.54
2023-05-09T06:34:19.349Z,48.89
2023-05-09T06:36:47.484Z,49.75
2023-05-09T06:39:14.192Z,48.34
2023-05-09T06:41:41.193Z,48.68
2023-05-09T06:44:07.961Z,48.34
2023-05-09T06:46:34.665Z,49.02
2023-05-09T06:49:01.361Z,46.57
2023-05-09T06:51:28.091Z,47.36
2023-05-09T06:53:56.270Z,48.51
2023-05-09T06:56:23.005Z,49.39
2023-05-09T06:58:49.718Z,47.86
2023-05-09T07:01:16.464Z,48.41
2023-05-09T07:03:43.207Z,48.27
2023-05-09T07:06:09.892Z,47.56
2023-05-09T07:08:36.598Z,47.32
2023-05-09T07:11:05.001Z,48.01
2023-05-09T07:13:31.882Z,46.76
2023-05-09T07:15:58.653Z,48.11
2023-05-09T07:18:25.461Z,47.84
2023-05-09T07:20:52.226Z,46.26
2023-05-09T07:23:18.946Z,47.83
2023-05-09T07:25:45.666Z,46.60
2023-05-09T07:28:14.217Z,48.21
2023-05-09T07:30:40.937Z,47.32
2023-05-09T07:33:07.836Z,45.24
2023-05-09T07:35:34.728Z,43.61
2023-05-09T07:38:01.419Z,45.09
2023-05-09T07:40:28.254Z,42.48
2023-05-09T07:42:54.938Z,46.72
2023-05-09T07:45:24.017Z,45.59
2023-05-09T07:47:51.012Z,46.56
2023-05-09T07:50:17.935Z,46.76
2023-05-09T07:52:44.796Z,47.02
2023-05-09T07:55:11.582Z,46.71
2023-05-09T07:57:38.356Z,43.73
2023-05-09T08:00:06.244Z,42.25
2023-05-09T08:02:34.620Z,44.86
2023-05-09T08:05:01.441Z,44.60
2023-05-09T08:07:28.172Z,45.38
2023-05-09T08:09:54.910Z,36.34
2023-05-09T08:12:21.635Z,40.02
2023-05-09T08:14:48.720Z,38.94
2023-05-09T08:17:15.483Z,40.64
2023-05-09T08:19:43.562Z,41.28
2023-05-09T08:22:16.049Z,42.25
2023-05-09T08:24:42.786Z,41.62
2023-05-09T08:27:09.469Z,40.94
2023-05-09T08:29:36.253Z,41.00
2023-05-09T08:32:03.129Z,42.97
2023-05-09T08:34:29.814Z,38.33
2023-05-09T08:36:57.998Z,38.94
2023-05-09T08:39:24.713Z,38.95
2023-05-09T08:41:51.409Z,39.71
2023-05-09T08:44:18.309Z,37.39
2023-05-09T08:46:45.110Z,33.90
2023-05-09T08:49:11.975Z,36.17
2023-05-09T08:51:38.787Z,37.20
2023-05-09T08:54:06.964Z,40.84
2023-05-09T08:56:34.205Z,39.08
2023-05-09T08:59:00.967Z,41.06
2023-05-09T09:01:27.778Z,41.22
2023-05-09T09:03:54.773Z,41.25
2023-05-09T09:06:21.823Z,39.81
2023-05-09T09:08:48.537Z,37.63
2023-05-09T09:11:16.603Z,35.42
2023-05-09T09:13:43.351Z,40.41
2023-05-09T09:16:10.642Z,38.05
2023-05-09T09:18:39.475Z,36.85
2023-05-09T09:21:07.368Z,36.26
2023-05-09T09:23:34.104Z,37.18
2023-05-09T09:26:02.111Z,39.10
2023-05-09T09:28:30.367Z,37.35
2023-05-09T09:30:57.080Z,37.98
2023-05-09T09:33:24.472Z,36.52
2023-05-09T09:35:51.623Z,37.94
2023-05-09T09:38:18.406Z,34.70
2023-05-09T09:40:54.618Z,34.67
2023-05-09T09:43:26.653Z,37.21
2023-05-09T09:45:54.925Z,41.93
2023-05-09T09:48:24.318Z,40.12
2023-05-09T09:50:51.050Z,40.19
2023-05-09T09:53:19.771Z,38.90
2023-05-09T09:55:49.676Z,35.82
2023-05-09T09:58:16.727Z,38.12
2023-05-09T10:00:43.578Z,35.78
2023-05-09T10:03:16.489Z,33.08
2023-05-09T10:05:43.414Z,36.60
2023-05-09T10:08:10.158Z,37.08
2023-05-09T10:10:37.102Z,34.88
2023-05-09T10:13:05.328Z,34.54
2023-05-09T10:15:41.414Z,35.73
2023-05-09T10:18:17.997Z,31.39
2023-05-09T10:20:44.765Z,31.39
2023-05-09T10:23:11.436Z,37.63
2023-05-09T10:25:38.956Z,37.67
2023-05-09T10:28:06.549Z,37.36
2023-05-09T10:30:35.558Z,37.15
2023-05-09T10:33:04.543Z,37.90
2023-05-09T10:35:33.684Z,35.33
2023-05-09T10:38:00.384Z,34.13
2023-05-09T10:40:27.692Z,34.45
2023-05-09T10:42:54.342Z,38.81
2023-05-09T10:45:21.324Z,39.12
2023-05-09T10:47:48.949Z,39.37
2023-05-09T10:50:15.899Z,38.74
2023-05-09T10:53:05.874Z,40.32
2023-05-09T10:55:39.141Z,36.15
2023-05-09T10:58:29.836Z,38.02
2023-05-09T11:00:57.481Z,36.66
2023-05-09T11:03:24.447Z,36.87
2023-05-09T11:05:52.065Z,37.53
2023-05-09T11:08:21.524Z,40.44
2023-05-09T11:10:48.250Z,39.57
2023-05-09T11:13:18.506Z,36.75
2023-05-09T11:16:04.305Z,31.95
2023-05-09T11:18:31.202Z,35.69
2023-05-09T11:20:57.882Z,32.94
2023-05-09T11:23:27.104Z,37.83
2023-05-09T11:25:53.925Z,37.59
2023-05-09T11:28:26.989Z,39.70
2023-05-09T11:30:54.896Z,40.67
2023-05-09T11:33:22.400Z,37.89
2023-05-09T11:35:49.106Z,37.88
2023-05-09T11:38:20.527Z,39.26
2023-05-09T11:40:48.613Z,36.43
2023-05-09T11:43:15.269Z,39.98
2023-05-09T11:45:42.018Z,40.88
2023-05-09T11:48:08.927Z,42.16
2023-05-09T11:50:35.779Z,40.44
2023-05-09T11:53:02.905Z,34.87
2023-05-09T11:55:29.609Z,35.27
2023-05-09T11:57:58.620Z,34.64
2023-05-09T12:00:25.754Z,34.01
2023-05-09T12:02:52.690Z,34.75
2023-05-09T12:05:20.436Z,35.62
2023-05-09T12:07:47.286Z,35.33
2023-05-09T12:10:14.977Z,34.79
2023-05-09T12:12:45.556Z,34.18
2023-05-09T12:15:14.426Z,35.24
2023-05-09T12:17:42.067Z,36.94
2023-05-09T12:20:09.067Z,36.67
2023-05-09T12:22:35.914Z,36.84
2023-05-09T12:25:05.479Z,34.69
2023-05-09T12:27:32.181Z,37.17
2023-05-09T12:29:59.227Z,37.39
2023-05-09T12:32:27.325Z,40.70
2023-05-09T12:34:53.996Z,40.74
2023-05-09T12:37:20.701Z,41.34
2023-05-09T12:40:00.541Z,41.41
2023-05-09T12:42:27.431Z,42.60
2023-05-09T12:44:54.119Z,38.03
2023-05-09T12:47:20.783Z,36.27
2023-05-09T12:49:50.454Z,37.04
2023-05-09T12:52:17.471Z,39.73
2023-05-09T12:54:45.329Z,40.13
2023-05-09T12:57:20.892Z,42.34
2023-05-09T12:59:47.681Z,42.23
2023-05-09T13:02:14.498Z,40.00
2023-05-09T13:04:41.252Z,38.60
2023-05-09T13:07:09.689Z,36.44
2023-05-09T13:09:36.457Z,37.86
2023-05-09T13:12:03.292Z,41.27
2023-05-09T13:14:30.126Z,38.20
2023-05-09T13:16:56.875Z,37.75
2023-05-09T13:19:23.612Z,36.62
2023-05-09T13:21:50.317Z,39.37
2023-05-09T13:24:18.407Z,37.69
2023-05-09T13:26:45.233Z,39.28
2023-05-09T13:29:11.937Z,37.93
2023-05-09T13:31:38.701Z,40.29
2023-05-09T13:34:05.555Z,39.80
2023-05-09T13:36:32.224Z,37.73
2023-05-09T13:38:58.915Z,40.65
2023-05-09T13:41:27.296Z,41.56
2023-05-09T13:43:54.090Z,42.05
2023-05-09T13:46:20.892Z,42.91
2023-05-09T13:48:47.709Z,41.21
2023-05-09T13:51:14.457Z,36.53
2023-05-09T13:53:41.598Z,39.11
2023-05-09T13:56:08.580Z,36.24
2023-05-09T13:58:36.776Z,35.58
2023-05-09T14:01:05.266Z,40.11
2023-05-09T14:03:32.445Z,39.61
2023-05-09T14:05:59.202Z,40.77
2023-05-09T14:08:25.953Z,41.42
2023-05-09T14:10:52.713Z,41.62
2023-05-09T14:13:19.510Z,43.02
2023-05-09T14:15:47.682Z,41.88
2023-05-09T14:18:17.635Z,41.65
2023-05-09T14:20:45.336Z,40.11
2023-05-09T14:23:12.034Z,42.89
2023-05-09T14:25:38.743Z,41.73
2023-05-09T14:28:05.504Z,40.02
2023-05-09T14:30:32.250Z,40.06
2023-05-09T14:33:00.409Z,40.09
2023-05-09T14:35:27.100Z,40.80
2023-05-09T14:37:53.850Z,42.45
2023-05-09T14:40:20.784Z,43.12
2023-05-09T14:42:48.023Z,43.17
2023-05-09T14:45:14.716Z,42.75
2023-05-09T14:47:41.573Z,41.78
2023-05-09T14:50:10.338Z,40.82
2023-05-09T14:52:37.025Z,42.07
2023-05-09T14:55:04.059Z,41.93
2023-05-09T14:57:30.742Z,43.73
2023-05-09T15:00:00.894Z,42.98
2023-05-09T15:02:32.622Z,43.26
2023-05-09T15:04:59.345Z,43.25
2023-05-09T15:07:27.525Z,43.99
2023-05-09T15:09:54.330Z,43.77
2023-05-09T15:12:21.043Z,44.85
2023-05-09T15:14:47.724Z,44.72
2023-05-09T15:17:14.487Z,43.01
2023-05-09T15:19:41.184Z,44.68
2023-05-09T15:22:08.061Z,45.98
2023-05-09T15:24:36.171Z,46.91
2023-05-09T15:27:02.962Z,47.00
2023-05-09T15:29:29.623Z,46.73
2023-05-09T15:31:56.363Z,47.42
2023-05-09T15:34:23.051Z,47.38
2023-05-09T15:36:49.850Z,47.60
2023-05-09T15:39:16.594Z,47.59
2023-05-09T15:41:44.691Z,46.63
2023-05-09T15:44:11.369Z,45.91
2023-05-09T15:46:38.170Z,47.04
2023-05-09T15:49:04.867Z,46.09
2023-05-09T15:51:31.582Z,45.65
2023-05-09T15:53:58.297Z,45.58
2023-05-09T15:56:24.972Z,45.06
2023-05-09T15:58:53.076Z,45.07
2023-05-09T16:01:19.850Z,44.78
2023-05-09T16:03:46.634Z,44.85
2023-05-09T16:06:13.421Z,46.25
2023-05-09T16:08:40.141Z,46.99
2023-05-09T16:11:06.854Z,46.28
2023-05-09T16:13:35.714Z,45.40
2023-05-09T16:16:05.157Z,46.29
2023-05-09T16:18:31.925Z,46.72
2023-05-09T16:20:58.587Z,47.29
2023-05-09T16:23:25.349Z,47.19
2023-05-09T16:25:52.056Z,47.56
2023-05-09T16:28:18.752Z,47.83
2023-05-09T16:30:45.491Z,48.68
2023-05-09T16:33:13.539Z,48.07
2023-05-09T16:35:40.235Z,48.17
2023-05-09T16:38:06.984Z,47.98
2023-05-09T16:40:33.649Z,48.44
2023-05-09T16:43:00.352Z,47.86
2023-05-09T16:45:27.206Z,48.73
2023-05-09T16:47:53.956Z,48.75
2023-05-09T16:50:22.127Z,48.53
2023-05-09T16:52:48.882Z,48.26
2023-05-09T16:55:15.836Z,48.46
2023-05-09T16:57:42.525Z,48.11
2023-05-09T17:00:10.016Z,47.19
2023-05-09T17:02:36.757Z,46.97
2023-05-09T17:05:03.625Z,47.79
2023-05-09T17:07:31.746Z,48.04
2023-05-09T17:09:58.584Z,48.19
2023-05-09T17:12:25.351Z,48.46
2023-05-09T17:14:52.091Z,48.39
2023-05-09T17:17:18.839Z,48.87
2023-05-09T17:19:45.584Z,48.56
2023-05-09T17:22:12.352Z,49.52
2023-05-09T17:24:40.396Z,49.52
2023-05-09T17:27:07.141Z,49.33
2023-05-09T17:29:33.832Z,49.61
2023-05-09T17:32:00.888Z,49.41
2023-05-09T17:34:27.808Z,49.00
2023-05-09T17:36:54.550Z,49.02
2023-05-09T17:39:21.220Z,50.80
2023-05-09T17:41:49.286Z,50.70
2023-05-09T17:44:16.105Z,49.91
2023-05-09T17:46:42.885Z,49.32
2023-05-09T17:49:09.685Z,49.85
2023-05-09T17:51:36.562Z,50.29
2023-05-09T17:54:03.482Z,50.13
2023-05-09T17:56:30.296Z,50.69
2023-05-09T17:58:59.203Z,50.27
2023-05-09T18:01:26.014Z,50.38
2023-05-09T18:03:52.968Z,50.21
2023-05-09T18:06:19.879Z,50.29
2023-05-09T18:08:47.047Z,51.35
2023-05-09T18:11:13.730Z,51.25
2023-05-09T18:13:40.486Z,51.79
2023-05-09T18:16:11.529Z,52.24
2023-05-09T18:18:38.417Z,53.39
2023-05-09T18:21:05.351Z,54.03
2023-05-09T18:23:32.172Z,55.35
2023-05-09T18:25:59.030Z,55.02
2023-05-09T18:28:25.955Z,55.78
2023-05-09T18:30:53.163Z,55.31
2023-05-09T18:33:22.362Z,56.44
2023-05-09T18:35:49.224Z,56.69
2023-05-09T18:38:16.016Z,59.96
2023-05-09T18:40:42.767Z,58.47
2023-05-09T18:43:09.726Z,57.18
2023-05-09T18:45:36.517Z,55.89
2023-05-09T18:48:03.594Z,56.35
2023-05-09T18:50:31.819Z,56.73
2023-05-09T18:52:58.601Z,56.65
2023-05-09T18:55:25.380Z,56.67
2023-05-09T18:57:52.150Z,58.83
2023-05-09T19:00:18.992Z,59.41
2023-05-09T19:02:45.770Z,58.95
2023-05-09T19:05:12.550Z,58.92
2023-05-09T19:07:40.593Z,59.32
2023-05-09T19:10:07.983Z,61.57
2023-05-09T19:12:34.712Z,59.99
2023-05-09T19:15:01.457Z,60.24
2023-05-09T19:17:28.204Z,60.25
2023-05-09T19:19:54.938Z,60.19
2023-05-09T19:22:21.621Z,58.51
2023-05-09T19:24:49.641Z,58.03
2023-05-09T19:27:16.359Z,57.63
2023-05-09T19:29:43.007Z,58.38
2023-05-09T19:32:09.721Z,58.26
2023-05-09T19:34:36.559Z,59.43
2023-05-09T19:37:03.356Z,58.99
2023-05-09T19:39:30.053Z,57.90
2023-05-09T19:42:00.310Z,57.78
2023-05-09T19:44:27.501Z,58.41
2023-05-09T19:46:54.365Z,58.54
2023-05-09T19:49:21.181Z,58.34
2023-05-09T19:51:47.927Z,59.18
2023-05-09T19:54:14.598Z,59.28
2023-05-09T19:56:41.278Z,59.54
2023-05-09T19:59:09.397Z,59.59
2023-05-09T20:01:36.126Z,59.74
2023-05-09T20:04:02.941Z,60.49
2023-05-09T20:06:29.642Z,60.40
2023-05-09T20:08:56.276Z,60.59
2023-05-09T20:11:22.954Z,61.77
2023-05-09T20:13:49.601Z,61.39
2023-05-09T20:16:17.799Z,61.95
2023-05-09T20:18:44.578Z,62.48
2023-05-09T20:21:11.226Z,62.28
2023-05-09T20:23:37.993Z,63.36
2023-05-09T20:26:04.694Z,63.27
2023-05-09T20:28:31.635Z,63.60
2023-05-09T20:30:58.338Z,62.99
2023-05-09T20:33:26.420Z,63.59
2023-05-09T20:35:53.101Z,64.27
2023-05-09T20:38:19.753Z,63.92
2023-05-09T20:40:46.807Z,64.45
2023-05-09T20:43:13.489Z,63.78
2023-05-09T20:45:40.158Z,64.33
2023-05-09T20:48:06.933Z,63.92
2023-05-09T20:50:35.018Z,64.16
2023-05-09T20:53:01.659Z,64.53
2023-05-09T20:55:28.516Z,64.51
2023-05-09T20:57:55.174Z,64.82
2023-05-09T21:00:21.868Z,65.21
2023-05-09T21:02:48.708Z,65.16
2023-05-09T21:05:15.606Z,65.66
2023-05-09T21:07:43.665Z,65.44
2023-05-09T21:10:10.710Z,65.31
2023-05-09T21:12:37.430Z,65.31
2023-05-09T21:15:04.862Z,65.61
2023-05-09T21:17:31.610Z,66.26
2023-05-09T21:19:58.351Z,67.07
2023-05-09T21:22:25.075Z,66.69
2023-05-09T21:24:53.137Z,66.71
2023-05-09T21:27:19.815Z,67.11
2023-05-09T21:29:46.467Z,67.48
2023-05-09T21:32:13.200Z,67.63
2023-05-09T21:34:39.855Z,67.93
2023-05-09T21:37:06.512Z,68.03
2023-05-09T21:39:33.540Z,68.09
2023-05-09T21:42:01.672Z,68.39
2023-05-09T21:44:28.414Z,68.44
2023-05-09T21:46:55.232Z,68.43
2023-05-09T21:49:21.982Z,68.24
2023-05-09T21:51:51.628Z,68.33
2023-05-09T21:54:18.355Z,68.09
2023-05-09T21:56:45.015Z,68.18
2023-05-09T21:59:13.130Z,67.82
2023-05-09T22:01:39.988Z,68.17
2023-05-09T22:04:06.759Z,68.25
2023-05-09T22:06:33.524Z,67.91
2023-05-09T22:09:00.280Z,68.22
2023-05-09T22:11:26.992Z,68.29
2023-05-09T22:13:53.720Z,68.57
2023-05-09T22:16:21.841Z,69.05
2023-05-09T22:18:48.593Z,69.20
2023-05-09T22:21:15.305Z,69.21
2023-05-09T22:23:42.013Z,69.59
2023-05-09T22:26:08.780Z,69.83
2023-05-09T22:28:35.449Z,69.77
2023-05-09T22:31:02.140Z,70.15
2023-05-09T22:33:30.241Z,70.49
2023-05-09T22:35:56.963Z,70.65
2023-05-09T22:38:23.681Z,70.86
2023-05-09T22:40:50.354Z,71.24
2023-05-09T22:43:17.035Z,72.13
2023-05-09T22:45:43.778Z,72.34
2023-05-09T22:48:10.574Z,72.72
2023-05-09T22:50:38.726Z,72.63
2023-05-09T22:53:05.482Z,73.73
2023-05-09T22:55:32.190Z,74.02
2023-05-09T22:57:58.955Z,74.55
2023-05-09T23:00:25.694Z,74.74
2023-05-09T23:02:52.629Z,75.07
2023-05-09T23:05:19.501Z,75.25
2023-05-09T23:07:48.287Z,75.10
2023-05-09T23:10:15.322Z,74.96
2023-05-09T23:12:42.240Z,75.30
2023-05-09T23:15:09.635Z,76.28
2023-05-09T23:17:36.419Z,76.15
2023-05-09T23:20:03.448Z,76.10
2023-05-09T23:22:30.147Z,76.52
2023-05-09T23:24:58.289Z,76.95
2023-05-09T23:27:25.084Z,77.28
2023-05-09T23:29:51.806Z,77.42
2023-05-09T23:32:18.689Z,78.05
2023-05-09T23:34:45.441Z,77.85
2023-05-09T23:37:12.224Z,78.29
2023-05-09T23:39:38.888Z,78.59
2023-05-09T23:42:07.020Z,79.17
2023-05-09T23:44:33.850Z,79.76
2023-05-09T23:47:00.600Z,80.92
2023-05-09T23:49:27.311Z,80.59
2023-05-09T23:51:54.037Z,81.17
2023-05-09T23:54:20.758Z,82.25
2023-05-09T23:56:47.834Z,82.74
2023-05-09T23:59:15.956Z,81.25
